Mir — UFPV — position and weather

sailwx.info

Track history (hours):
 
Tides and Currents Weather Stations Pressure Air Temp Water Temp Dewpoint Dewpoint Depression Visibility Wind Speed Wind Dir Waves Ship Positions

Mir (Russia)

Last reported at 2017-Nov-18 19:31 UTC. Time now 2017-Nov-18 19:54 UTC.
Position N 54°40' E 010°57'.

Length 109 m; draft 6.6 m.

Type: Sailing vessel. MMSI: 273133800.

Date/timePositionNaut miles runAvg speedWind from/ knotsBaromVisibWave heightAir tempDewpointWater temp
2017-Nov-18 19:31N 54°40' E 010°57'3 6.2
2017-Nov-18 19:00N 54°42' E 010°53'2 4.7
2017-Nov-18 18:30N 54°44' E 010°52'3 5.0
2017-Nov-18 18:00N 54°47' E 010°52'3 6.1
2017-Nov-18 17:30N 54°50' E 010°52'3 6.2
2017-Nov-18 17:00N 54°53' E 010°53'3 5.6
2017-Nov-18 16:30N 54°55' E 010°54'3 5.4
2017-Nov-18 16:00N 54°57' E 010°57'3 5.5
2017-Nov-18 15:30N 54°59' E 011°00'3 5.8
2017-Nov-18 15:00N 55°02' E 011°01'3 5.9
2017-Nov-18 14:30N 55°05' E 011°02'3 6.3
2017-Nov-18 14:00N 55°08' E 011°03'3 5.7
2017-Nov-18 13:31N 55°11' E 011°04'3 5.4
2017-Nov-18 12:55N 55°14' E 011°06'106 3.8
2017-Nov-17 08:57N 56°58' E 011°44'2 4.7
2017-Nov-17 08:30N 57°00' E 011°43'2 4.7
2017-Nov-17 08:00N 57°02' E 011°41'2 4.9
2017-Nov-17 07:30N 57°04' E 011°39'3 5.4
2017-Nov-17 07:00N 57°07' E 011°38'3 5.4
2017-Nov-17 06:30N 57°10' E 011°36'3 5.1
2017-Nov-17 06:00N 57°12' E 011°34'3 5.0
2017-Nov-17 05:30N 57°14' E 011°32'3 5.3
2017-Nov-17 05:00N 57°17' E 011°31'3 5.6
2017-Nov-17 04:29N 57°19' E 011°29'3 5.5
2017-Nov-17 04:00N 57°22' E 011°27'3 5.6
2017-Nov-17 03:31N 57°25' E 011°25'3 5.6
2017-Nov-17 03:00N 57°27' E 011°23'3 6.1
2017-Nov-17 02:30N 57°30' E 011°20'3 6.5
2017-Nov-17 02:00N 57°32' E 011°16'3 6.0
2017-Nov-17 01:30N 57°35' E 011°13'3 5.8
2017-Nov-17 01:00N 57°37' E 011°11'3 6.3
2017-Nov-17 00:30N 57°40' E 011°08'3 6.3
2017-Nov-17 00:00N 57°43' E 011°05'3 6.1
2017-Nov-16 23:30N 57°45' E 011°02'3 6.0
2017-Nov-16 23:00N 57°48' E 010°58'3 6.4
2017-Nov-16 22:29N 57°50' E 010°55'3 6.1
2017-Nov-16 22:00N 57°52' E 010°51'3 6.1
2017-Nov-16 21:29N 57°55' E 010°47'3 6.2
2017-Nov-16 21:00N 57°57' E 010°43'6 6.7
2017-Nov-16 20:11N 57°57' E 010°33'1 6.5
2017-Nov-16 20:00N 57°57' E 010°31'327 7.6
2017-Nov-15 01:12N 53°45' E 004°20'2 8.8
2017-Nov-15 00:59N 53°44' E 004°18'9 8.6
2017-Nov-14 23:59N 53°39' E 004°06'28 8.0
2017-Nov-14 20:31N 53°17' E 003°36'0 8.0
2017-Nov-14 20:29N 53°17' E 003°36'91 7.1
2017-Nov-14 07:40N 51°52' E 002°42'15 5.9
2017-Nov-14 05:03N 51°40' E 002°27'1 5.2
2017-Nov-14 04:56N 51°39' E 002°27'2 5.0
2017-Nov-14 04:29N 51°38' E 002°25'2 4.9
2017-Nov-14 04:00N 51°36' E 002°22'2 4.3
2017-Nov-14 03:30N 51°34' E 002°20'2 3.7
2017-Nov-14 02:58N 51°32' E 002°18'3 6.7
2017-Nov-14 02:29N 51°30' E 002°15'4 7.2
2017-Nov-14 02:00N 51°27' E 002°12'4 7.3
2017-Nov-14 01:30N 51°24' E 002°08'4 7.3
2017-Nov-14 01:00N 51°21' E 002°07'4 7.4
2017-Nov-14 00:30N 51°17' E 002°05'4 7.5
2017-Nov-14 00:00N 51°14' E 002°03'4 7.6
2017-Nov-13 23:30N 51°11' E 001°58'4 7.8
2017-Nov-13 23:00N 51°09' E 001°53'4 7.8
2017-Nov-13 22:30N 51°06' E 001°48'4 8.1
2017-Nov-13 22:00N 51°03' E 001°44'114 5.0
2017-Nov-12 22:55N 49°56' W 000°41'1 2.0
2017-Nov-12 22:26N 49°55' W 000°41'1 2.0
2017-Nov-12 21:55N 49°54' W 000°40'1 1.7
2017-Nov-12 21:31N 49°53' W 000°40'1 1.9
2017-Nov-12 20:56N 49°52' W 000°40'1 1.9
2017-Nov-12 20:29N 49°51' W 000°39'1 2.0
2017-Nov-12 19:59N 49°50' W 000°39'1 2.0
2017-Nov-12 19:30N 49°49' W 000°39'1 2.3
2017-Nov-12 19:00N 49°48' W 000°40'1 2.3
2017-Nov-12 18:30N 49°47' W 000°40'1 2.7
2017-Nov-12 17:59N 49°46' W 000°41'1 2.6
2017-Nov-12 17:30N 49°45' W 000°42'1 2.3
2017-Nov-12 17:00N 49°44' W 000°43'1 2.1
2017-Nov-12 16:29N 49°43' W 000°44'1 1.7
2017-Nov-12 15:59N 49°42' W 000°45'1 1.7
2017-Nov-12 15:28N 49°42' W 000°45'1 1.8
2017-Nov-12 15:00N 49°41' W 000°46'1 2.2
2017-Nov-12 14:30N 49°40' W 000°47'1 2.3
2017-Nov-12 13:58N 49°39' W 000°49'3 2.1
2017-Nov-12 12:39N 49°37' W 000°51'0 2.7
2017-Nov-12 12:29N 49°36' W 000°51'3 5.1
2017-Nov-12 11:57N 49°39' W 000°53'4 5.7
2017-Nov-12 11:14N 49°43' W 000°54'2 5.6
2017-Nov-12 10:50N 49°45' W 000°55'1 2.2
2017-Nov-12 10:29N 49°46' W 000°55'1 2.2
2017-Nov-12 10:00N 49°45' W 000°54'1 2.2
2017-Nov-12 09:30N 49°44' W 000°54'7 2.2
2017-Nov-12 06:24N 49°37' W 000°50'1 1.7
2017-Nov-12 06:00N 49°37' W 000°49'1 2.0
2017-Nov-12 05:31N 49°37' W 000°48'1 1.8
2017-Nov-12 05:00N 49°36' W 000°46'1 1.7
2017-Nov-12 04:30N 49°36' W 000°45'1 1.7
2017-Nov-12 04:00N 49°36' W 000°44'1 1.6
2017-Nov-12 03:30N 49°36' W 000°42'1 2.1
2017-Nov-12 03:01N 49°36' W 000°41'1 2.0
2017-Nov-12 02:30N 49°36' W 000°39'1 1.7
2017-Nov-12 02:00N 49°36' W 000°38'1 2.0
2017-Nov-12 01:30N 49°35' W 000°37'1 2.4
2017-Nov-12 01:01N 49°35' W 000°35'1 2.6
2017-Nov-12 00:30N 49°35' W 000°33'0 0.9
2017-Nov-12 00:00N 49°35' W 000°33'3 5.5
2017-Nov-11 23:28N 49°36' W 000°38'3 5.0
2017-Nov-11 22:57N 49°36' W 000°42'3 4.2
2017-Nov-11 22:17N 49°37' W 000°46'1 3.4
2017-Nov-11 22:00N 49°37' W 000°47'3 3.1
2017-Nov-11 20:56N 49°37' W 000°52'1 2.9
2017-Nov-11 20:30N 49°37' W 000°51'2 5.0
2017-Nov-11 20:00N 49°37' W 000°47'2 4.5
2017-Nov-11 19:30N 49°36' W 000°43'2 3.5
2017-Nov-11 19:00N 49°36' W 000°41'1 2.9
2017-Nov-11 18:30N 49°36' W 000°39'1 2.8
2017-Nov-11 18:00N 49°36' W 000°36'1 2.5
2017-Nov-11 17:31N 49°35' W 000°35'1 2.1
2017-Nov-11 17:00N 49°35' W 000°33'1 2.3
2017-Nov-11 16:30N 49°35' W 000°31'1 2.4
2017-Nov-11 16:00N 49°35' W 000°33'3 5.7
2017-Nov-11 15:30N 49°35' W 000°37'3 6.0
2017-Nov-11 15:00N 49°34' W 000°42'3 5.1
2017-Nov-11 14:30N 49°35' W 000°46'3 5.8
2017-Nov-11 14:00N 49°37' W 000°49'2 3.9
2017-Nov-11 13:31N 49°37' W 000°52'1 1.3
2017-Nov-11 13:00N 49°37' W 000°51'1 1.4
2017-Nov-11 12:30N 49°36' W 000°50'1 1.3
2017-Nov-11 12:00N 49°36' W 000°49'1 1.7
2017-Nov-11 11:30N 49°36' W 000°48'1 1.4
2017-Nov-11 11:00N 49°35' W 000°47'1 2.0
2017-Nov-11 10:31N 49°35' W 000°46'1 2.6
2017-Nov-11 10:00N 49°35' W 000°44'1 2.6
2017-Nov-11 09:30N 49°35' W 000°42'1 2.7
2017-Nov-11 09:00N 49°35' W 000°40'1 2.9
2017-Nov-11 08:30N 49°35' W 000°37'1 2.8
2017-Nov-11 08:00N 49°35' W 000°35'1 2.5
2017-Nov-11 07:30N 49°35' W 000°33'1 2.5
2017-Nov-11 07:00N 49°35' W 000°31'1 1.4
2017-Nov-11 06:30N 49°35' W 000°32'2 4.7
2017-Nov-11 06:01N 49°35' W 000°36'2 4.9
2017-Nov-11 05:30N 49°36' W 000°40'3 5.1
2017-Nov-11 05:00N 49°36' W 000°44'5 5.2
2017-Nov-11 04:05N 49°37' W 000°51'0 4.7
2017-Nov-11 04:00N 49°36' W 000°52'1 1.9
2017-Nov-11 03:30N 49°36' W 000°50'1 2.4
2017-Nov-11 03:00N 49°36' W 000°48'2 3.2
2017-Nov-11 02:30N 49°36' W 000°46'1 2.8
2017-Nov-11 02:01N 49°35' W 000°44'1 1.8
2017-Nov-11 01:31N 49°36' W 000°44'2 3.8
2017-Nov-11 01:00N 49°38' W 000°46'2 4.3
2017-Nov-11 00:25N 49°40' W 000°49'2 4.8
2017-Nov-10 23:55N 49°41' W 000°51'2 4.7
2017-Nov-10 23:25N 49°43' W 000°53'5 4.9
2017-Nov-10 22:29N 49°47' W 000°57'2 4.7
2017-Nov-10 22:00N 49°49' W 000°58'2 4.5
2017-Nov-10 21:28N 49°51' W 001°00'0 0.8
2017-Nov-10 21:00N 49°52' W 000°60'1 2.4
2017-Nov-10 20:30N 49°51' W 000°58'1 2.8
2017-Nov-10 20:00N 49°50' W 000°57'1 2.8
2017-Nov-10 19:31N 49°49' W 000°55'1 2.7
2017-Nov-10 19:01N 49°48' W 000°53'2 3.4
2017-Nov-10 18:30N 49°47' W 000°51'2 3.4
2017-Nov-10 18:00N 49°46' W 000°49'2 3.6
2017-Nov-10 17:30N 49°45' W 000°47'2 3.2
2017-Nov-10 17:00N 49°44' W 000°45'1 2.8
2017-Nov-10 16:30N 49°43' W 000°44'1 2.1
2017-Nov-10 16:00N 49°42' W 000°43'1 1.9
2017-Nov-10 15:30N 49°41' W 000°42'1 2.6
2017-Nov-10 15:00N 49°40' W 000°41'1 2.7
2017-Nov-10 14:30N 49°39' W 000°40'1 2.7
2017-Nov-10 14:00N 49°37' W 000°40'1 2.8
2017-Nov-10 13:30N 49°36' W 000°39'1 3.0
2017-Nov-10 13:00N 49°35' W 000°39'2 4.9
2017-Nov-10 12:30N 49°37' W 000°40'3 5.7
2017-Nov-10 12:01N 49°40' W 000°42'3 6.1
2017-Nov-10 11:30N 49°42' W 000°44'4 7.2
2017-Nov-10 10:59N 49°45' W 000°48'4 7.4
2017-Nov-10 10:30N 49°48' W 000°51'4 7.2
2017-Nov-10 10:00N 49°50' W 000°55'3 6.7
2017-Nov-10 09:29N 49°53' W 000°59'3 5.9
2017-Nov-10 08:56N 49°55' W 001°03'2 5.8
2017-Nov-10 08:30N 49°57' W 001°05'3 6.0
2017-Nov-10 08:00N 49°59' W 001°08'3 5.4
2017-Nov-10 07:26N 50°01' W 001°12'2 4.9
2017-Nov-10 07:00N 50°03' W 001°14'3 5.1
2017-Nov-10 06:30N 50°04' W 001°17'2 3.6
2017-Nov-10 05:59N 50°04' W 001°20'2 3.5
2017-Nov-10 05:30N 50°04' W 001°22'2 3.3
2017-Nov-10 05:00N 50°03' W 001°25'2 3.5
2017-Nov-10 04:31N 50°03' W 001°28'2 4.2
2017-Nov-10 04:00N 50°02' W 001°31'3 5.1
2017-Nov-10 03:30N 50°02' W 001°35'3 5.6
2017-Nov-10 03:00N 50°01' W 001°39'3 5.9
2017-Nov-10 02:30N 49°60' W 001°43'3 6.7
2017-Nov-10 02:00N 49°59' W 001°48'3 6.5
2017-Nov-10 01:30N 49°58' W 001°53'3 7.0
2017-Nov-10 01:00N 49°58' W 001°58'31 5.9
2017-Nov-09 19:42N 49°49' W 002°45'1 3.7
2017-Nov-09 19:18N 49°48' W 002°47'1 3.5
2017-Nov-09 19:00N 49°48' W 002°49'2 2.7
2017-Nov-09 18:19N 49°48' W 002°52'29 3.9
2017-Nov-09 10:54N 49°33' W 003°30'  
Track history (hours):
 
Tides and Currents Weather Stations Pressure Air Temp Water Temp Dewpoint Dewpoint Depression Visibility Wind Speed Wind Dir Waves Ship Positions

Mir (Russia)

Last reported at 2017-Nov-18 19:31 UTC. Time now 2017-Nov-18 19:54 UTC.
Position N 54°40' E 010°57'.

Length 109 m; draft 6.6 m.

Type: Sailing vessel. MMSI: 273133800.

Date/timePositionNaut miles runAvg speedWind from/ knotsBaromVisibWave heightAir tempDewpointWater temp
2017-Nov-18 19:31N 54°40' E 010°57'3 6.2
2017-Nov-18 19:00N 54°42' E 010°53'2 4.7
2017-Nov-18 18:30N 54°44' E 010°52'3 5.0
2017-Nov-18 18:00N 54°47' E 010°52'3 6.1
2017-Nov-18 17:30N 54°50' E 010°52'3 6.2
2017-Nov-18 17:00N 54°53' E 010°53'3 5.6
2017-Nov-18 16:30N 54°55' E 010°54'3 5.4
2017-Nov-18 16:00N 54°57' E 010°57'3 5.5
2017-Nov-18 15:30N 54°59' E 011°00'3 5.8
2017-Nov-18 15:00N 55°02' E 011°01'3 5.9
2017-Nov-18 14:30N 55°05' E 011°02'3 6.3
2017-Nov-18 14:00N 55°08' E 011°03'3 5.7
2017-Nov-18 13:31N 55°11' E 011°04'3 5.4
2017-Nov-18 12:55N 55°14' E 011°06'106 3.8
2017-Nov-17 08:57N 56°58' E 011°44'2 4.7
2017-Nov-17 08:30N 57°00' E 011°43'2 4.7
2017-Nov-17 08:00N 57°02' E 011°41'2 4.9
2017-Nov-17 07:30N 57°04' E 011°39'3 5.4
2017-Nov-17 07:00N 57°07' E 011°38'3 5.4
2017-Nov-17 06:30N 57°10' E 011°36'3 5.1
2017-Nov-17 06:00N 57°12' E 011°34'3 5.0
2017-Nov-17 05:30N 57°14' E 011°32'3 5.3
2017-Nov-17 05:00N 57°17' E 011°31'3 5.6
2017-Nov-17 04:29N 57°19' E 011°29'3 5.5
2017-Nov-17 04:00N 57°22' E 011°27'3 5.6
2017-Nov-17 03:31N 57°25' E 011°25'3 5.6
2017-Nov-17 03:00N 57°27' E 011°23'3 6.1
2017-Nov-17 02:30N 57°30' E 011°20'3 6.5
2017-Nov-17 02:00N 57°32' E 011°16'3 6.0
2017-Nov-17 01:30N 57°35' E 011°13'3 5.8
2017-Nov-17 01:00N 57°37' E 011°11'3 6.3
2017-Nov-17 00:30N 57°40' E 011°08'3 6.3
2017-Nov-17 00:00N 57°43' E 011°05'3 6.1
2017-Nov-16 23:30N 57°45' E 011°02'3 6.0
2017-Nov-16 23:00N 57°48' E 010°58'3 6.4
2017-Nov-16 22:29N 57°50' E 010°55'3 6.1
2017-Nov-16 22:00N 57°52' E 010°51'3 6.1
2017-Nov-16 21:29N 57°55' E 010°47'3 6.2
2017-Nov-16 21:00N 57°57' E 010°43'6 6.7
2017-Nov-16 20:11N 57°57' E 010°33'1 6.5
2017-Nov-16 20:00N 57°57' E 010°31'327 7.6
2017-Nov-15 01:12N 53°45' E 004°20'2 8.8
2017-Nov-15 00:59N 53°44' E 004°18'9 8.6
2017-Nov-14 23:59N 53°39' E 004°06'28 8.0
2017-Nov-14 20:31N 53°17' E 003°36'0 8.0
2017-Nov-14 20:29N 53°17' E 003°36'91 7.1
2017-Nov-14 07:40N 51°52' E 002°42'15 5.9
2017-Nov-14 05:03N 51°40' E 002°27'1 5.2
2017-Nov-14 04:56N 51°39' E 002°27'2 5.0
2017-Nov-14 04:29N 51°38' E 002°25'2 4.9
2017-Nov-14 04:00N 51°36' E 002°22'2 4.3
2017-Nov-14 03:30N 51°34' E 002°20'2 3.7
2017-Nov-14 02:58N 51°32' E 002°18'3 6.7
2017-Nov-14 02:29N 51°30' E 002°15'4 7.2
2017-Nov-14 02:00N 51°27' E 002°12'4 7.3
2017-Nov-14 01:30N 51°24' E 002°08'4 7.3
2017-Nov-14 01:00N 51°21' E 002°07'4 7.4
2017-Nov-14 00:30N 51°17' E 002°05'4 7.5
2017-Nov-14 00:00N 51°14' E 002°03'4 7.6
2017-Nov-13 23:30N 51°11' E 001°58'4 7.8
2017-Nov-13 23:00N 51°09' E 001°53'4 7.8
2017-Nov-13 22:30N 51°06' E 001°48'4 8.1
2017-Nov-13 22:00N 51°03' E 001°44'114 5.0
2017-Nov-12 22:55N 49°56' W 000°41'1 2.0
2017-Nov-12 22:26N 49°55' W 000°41'1 2.0
2017-Nov-12 21:55N 49°54' W 000°40'1 1.7
2017-Nov-12 21:31N 49°53' W 000°40'1 1.9
2017-Nov-12 20:56N 49°52' W 000°40'1 1.9
2017-Nov-12 20:29N 49°51' W 000°39'1 2.0
2017-Nov-12 19:59N 49°50' W 000°39'1 2.0
2017-Nov-12 19:30N 49°49' W 000°39'1 2.3
2017-Nov-12 19:00N 49°48' W 000°40'1 2.3
2017-Nov-12 18:30N 49°47' W 000°40'1 2.7
2017-Nov-12 17:59N 49°46' W 000°41'1 2.6
2017-Nov-12 17:30N 49°45' W 000°42'1 2.3
2017-Nov-12 17:00N 49°44' W 000°43'1 2.1
2017-Nov-12 16:29N 49°43' W 000°44'1 1.7
2017-Nov-12 15:59N 49°42' W 000°45'1 1.7
2017-Nov-12 15:28N 49°42' W 000°45'1 1.8
2017-Nov-12 15:00N 49°41' W 000°46'1 2.2
2017-Nov-12 14:30N 49°40' W 000°47'1 2.3
2017-Nov-12 13:58N 49°39' W 000°49'3 2.1
2017-Nov-12 12:39N 49°37' W 000°51'0 2.7
2017-Nov-12 12:29N 49°36' W 000°51'3 5.1
2017-Nov-12 11:57N 49°39' W 000°53'4 5.7
2017-Nov-12 11:14N 49°43' W 000°54'2 5.6
2017-Nov-12 10:50N 49°45' W 000°55'1 2.2
2017-Nov-12 10:29N 49°46' W 000°55'1 2.2
2017-Nov-12 10:00N 49°45' W 000°54'1 2.2
2017-Nov-12 09:30N 49°44' W 000°54'7 2.2
2017-Nov-12 06:24N 49°37' W 000°50'1 1.7
2017-Nov-12 06:00N 49°37' W 000°49'1 2.0
2017-Nov-12 05:31N 49°37' W 000°48'1 1.8
2017-Nov-12 05:00N 49°36' W 000°46'1 1.7
2017-Nov-12 04:30N 49°36' W 000°45'1 1.7
2017-Nov-12 04:00N 49°36' W 000°44'1 1.6
2017-Nov-12 03:30N 49°36' W 000°42'1 2.1
2017-Nov-12 03:01N 49°36' W 000°41'1 2.0
2017-Nov-12 02:30N 49°36' W 000°39'1 1.7
2017-Nov-12 02:00N 49°36' W 000°38'1 2.0
2017-Nov-12 01:30N 49°35' W 000°37'1 2.4
2017-Nov-12 01:01N 49°35' W 000°35'1 2.6
2017-Nov-12 00:30N 49°35' W 000°33'0 0.9
2017-Nov-12 00:00N 49°35' W 000°33'3 5.5
2017-Nov-11 23:28N 49°36' W 000°38'3 5.0
2017-Nov-11 22:57N 49°36' W 000°42'3 4.2
2017-Nov-11 22:17N 49°37' W 000°46'1 3.4
2017-Nov-11 22:00N 49°37' W 000°47'3 3.1
2017-Nov-11 20:56N 49°37' W 000°52'1 2.9
2017-Nov-11 20:30N 49°37' W 000°51'2 5.0
2017-Nov-11 20:00N 49°37' W 000°47'2 4.5
2017-Nov-11 19:30N 49°36' W 000°43'2 3.5
2017-Nov-11 19:00N 49°36' W 000°41'1 2.9
2017-Nov-11 18:30N 49°36' W 000°39'1 2.8
2017-Nov-11 18:00N 49°36' W 000°36'1 2.5
2017-Nov-11 17:31N 49°35' W 000°35'1 2.1
2017-Nov-11 17:00N 49°35' W 000°33'1 2.3
2017-Nov-11 16:30N 49°35' W 000°31'1 2.4
2017-Nov-11 16:00N 49°35' W 000°33'3 5.7
2017-Nov-11 15:30N 49°35' W 000°37'3 6.0
2017-Nov-11 15:00N 49°34' W 000°42'3 5.1
2017-Nov-11 14:30N 49°35' W 000°46'3 5.8
2017-Nov-11 14:00N 49°37' W 000°49'2 3.9
2017-Nov-11 13:31N 49°37' W 000°52'1 1.3
2017-Nov-11 13:00N 49°37' W 000°51'1 1.4
2017-Nov-11 12:30N 49°36' W 000°50'1 1.3
2017-Nov-11 12:00N 49°36' W 000°49'1 1.7
2017-Nov-11 11:30N 49°36' W 000°48'1 1.4
2017-Nov-11 11:00N 49°35' W 000°47'1 2.0
2017-Nov-11 10:31N 49°35' W 000°46'1 2.6
2017-Nov-11 10:00N 49°35' W 000°44'1 2.6
2017-Nov-11 09:30N 49°35' W 000°42'1 2.7
2017-Nov-11 09:00N 49°35' W 000°40'1 2.9
2017-Nov-11 08:30N 49°35' W 000°37'1 2.8
2017-Nov-11 08:00N 49°35' W 000°35'1 2.5
2017-Nov-11 07:30N 49°35' W 000°33'1 2.5
2017-Nov-11 07:00N 49°35' W 000°31'1 1.4
2017-Nov-11 06:30N 49°35' W 000°32'2 4.7
2017-Nov-11 06:01N 49°35' W 000°36'2 4.9
2017-Nov-11 05:30N 49°36' W 000°40'3 5.1
2017-Nov-11 05:00N 49°36' W 000°44'5 5.2
2017-Nov-11 04:05N 49°37' W 000°51'0 4.7
2017-Nov-11 04:00N 49°36' W 000°52'1 1.9
2017-Nov-11 03:30N 49°36' W 000°50'1 2.4
2017-Nov-11 03:00N 49°36' W 000°48'2 3.2
2017-Nov-11 02:30N 49°36' W 000°46'1 2.8
2017-Nov-11 02:01N 49°35' W 000°44'1 1.8
2017-Nov-11 01:31N 49°36' W 000°44'2 3.8
2017-Nov-11 01:00N 49°38' W 000°46'2 4.3
2017-Nov-11 00:25N 49°40' W 000°49'2 4.8
2017-Nov-10 23:55N 49°41' W 000°51'2 4.7
2017-Nov-10 23:25N 49°43' W 000°53'5 4.9
2017-Nov-10 22:29N 49°47' W 000°57'2 4.7
2017-Nov-10 22:00N 49°49' W 000°58'2 4.5
2017-Nov-10 21:28N 49°51' W 001°00'0 0.8
2017-Nov-10 21:00N 49°52' W 000°60'1 2.4
2017-Nov-10 20:30N 49°51' W 000°58'1 2.8
2017-Nov-10 20:00N 49°50' W 000°57'1 2.8
2017-Nov-10 19:31N 49°49' W 000°55'1 2.7
2017-Nov-10 19:01N 49°48' W 000°53'2 3.4
2017-Nov-10 18:30N 49°47' W 000°51'2 3.4
2017-Nov-10 18:00N 49°46' W 000°49'2 3.6
2017-Nov-10 17:30N 49°45' W 000°47'2 3.2
2017-Nov-10 17:00N 49°44' W 000°45'1 2.8
2017-Nov-10 16:30N 49°43' W 000°44'1 2.1
2017-Nov-10 16:00N 49°42' W 000°43'1 1.9
2017-Nov-10 15:30N 49°41' W 000°42'1 2.6
2017-Nov-10 15:00N 49°40' W 000°41'1 2.7
2017-Nov-10 14:30N 49°39' W 000°40'1 2.7
2017-Nov-10 14:00N 49°37' W 000°40'1 2.8
2017-Nov-10 13:30N 49°36' W 000°39'1 3.0
2017-Nov-10 13:00N 49°35' W 000°39'2 4.9
2017-Nov-10 12:30N 49°37' W 000°40'3 5.7
2017-Nov-10 12:01N 49°40' W 000°42'3 6.1
2017-Nov-10 11:30N 49°42' W 000°44'4 7.2
2017-Nov-10 10:59N 49°45' W 000°48'4 7.4
2017-Nov-10 10:30N 49°48' W 000°51'4 7.2
2017-Nov-10 10:00N 49°50' W 000°55'3 6.7
2017-Nov-10 09:29N 49°53' W 000°59'3 5.9
2017-Nov-10 08:56N 49°55' W 001°03'2 5.8
2017-Nov-10 08:30N 49°57' W 001°05'3 6.0
2017-Nov-10 08:00N 49°59' W 001°08'3 5.4
2017-Nov-10 07:26N 50°01' W 001°12'2 4.9
2017-Nov-10 07:00N 50°03' W 001°14'3 5.1
2017-Nov-10 06:30N 50°04' W 001°17'2 3.6
2017-Nov-10 05:59N 50°04' W 001°20'2 3.5
2017-Nov-10 05:30N 50°04' W 001°22'2 3.3
2017-Nov-10 05:00N 50°03' W 001°25'2 3.5
2017-Nov-10 04:31N 50°03' W 001°28'2 4.2
2017-Nov-10 04:00N 50°02' W 001°31'3 5.1
2017-Nov-10 03:30N 50°02' W 001°35'3 5.6
2017-Nov-10 03:00N 50°01' W 001°39'3 5.9
2017-Nov-10 02:30N 49°60' W 001°43'3 6.7
2017-Nov-10 02:00N 49°59' W 001°48'3 6.5
2017-Nov-10 01:30N 49°58' W 001°53'3 7.0
2017-Nov-10 01:00N 49°58' W 001°58'31 5.9
2017-Nov-09 19:42N 49°49' W 002°45'1 3.7
2017-Nov-09 19:18N 49°48' W 002°47'1 3.5
2017-Nov-09 19:00N 49°48' W 002°49'2 2.7
2017-Nov-09 18:19N 49°48' W 002°52'29 3.9
2017-Nov-09 10:54N 49°33' W 003°30'  

Dump ship's entire track history